Time;durP1;ratioP1;P1;durP2;ratioP2;P2;SDS_P1;SDS_P2;PMS_P1;PMS_P2;Temp;Humidity;BMP_temperature;BMP_pressure;BME280_temperature;BME280_humidity;BME280_pressure;Samples;Min_cycle;Max_cycle;Signal;HPM_P1;HPM_P2
2022/03/10 00:00:32;;;;;;;49.20;20.45;;;;;;;;;;4930726;28;106802;-63
2022/03/10 00:02:58;;;;;;;43.63;19.15;;;;;;;;;;4930556;28;106327;-63
2022/03/10 00:05:25;;;;;;;46.45;19.08;;;;;;;;;;4924214;28;107082;-64
2022/03/10 00:07:51;;;;;;;44.67;19.70;;;;;;;;;;4930712;28;108116;-63
2022/03/10 00:10:18;;;;;;;42.13;19.08;;;;;;;;;;4930070;28;106154;-63
2022/03/10 00:12:51;;;;;;;46.95;19.17;;;;;;;;;;4912132;28;105995;-63
2022/03/10 00:15:19;;;;;;;48.92;20.23;;;;;;;;;;4929021;28;107600;-63
2022/03/10 00:17:45;;;;;;;47.05;19.90;;;;;;;;;;4926999;28;106208;-63
2022/03/10 00:20:12;;;;;;;44.28;18.63;;;;;;;;;;4928507;28;106067;-64
2022/03/10 00:22:45;;;;;;;40.20;18.95;;;;;;;;;;4932962;28;107545;-64
2022/03/10 00:25:13;;;;;;;49.42;18.92;;;;;;;;;;4929630;28;106867;-66
2022/03/10 00:27:39;;;;;;;39.50;18.05;;;;;;;;;;4929302;28;108896;-63
2022/03/10 00:30:07;;;;;;;41.80;18.30;;;;;;;;;;4923241;28;106325;-63
2022/03/10 00:32:40;;;;;;;42.10;18.25;;;;;;;;;;4930341;28;106610;-63
2022/03/10 00:35:06;;;;;;;44.08;19.40;;;;;;;;;;4923137;28;106432;-63
2022/03/10 00:37:33;;;;;;;41.20;18.30;;;;;;;;;;4929594;28;107434;-64
2022/03/10 00:39:59;;;;;;;45.20;18.65;;;;;;;;;;4924220;28;106023;-64
2022/03/10 00:42:26;;;;;;;41.00;17.38;;;;;;;;;;4929430;28;107563;-64
2022/03/10 00:44:52;;;;;;;41.90;19.05;;;;;;;;;;4934843;28;106550;-63
2022/03/10 00:47:19;;;;;;;40.35;17.83;;;;;;;;;;4928263;28;106638;-63
2022/03/10 00:49:46;;;;;;;48.17;19.42;;;;;;;;;;4928065;28;106774;-65
2022/03/10 00:52:12;;;;;;;45.72;20.13;;;;;;;;;;4928620;28;106942;-63
2022/03/10 00:54:39;;;;;;;51.22;20.65;;;;;;;;;;4927908;28;109078;-63
2022/03/10 00:57:05;;;;;;;44.97;19.55;;;;;;;;;;4929048;28;107566;-65
2022/03/10 00:59:32;;;;;;;42.80;18.88;;;;;;;;;;4928460;28;106848;-63
2022/03/10 01:01:58;;;;;;;48.53;19.67;;;;;;;;;;4929494;28;108057;-66
2022/03/10 01:04:25;;;;;;;51.47;20.23;;;;;;;;;;4919126;28;106262;-68
2022/03/10 01:06:51;;;;;;;43.35;19.58;;;;;;;;;;4932624;28;105931;-66
2022/03/10 01:09:17;;;;;;;47.08;20.23;;;;;;;;;;4929161;28;107559;-64
2022/03/10 01:11:44;;;;;;;44.60;19.92;;;;;;;;;;4929315;28;106990;-63
2022/03/10 01:14:11;;;;;;;44.17;20.35;;;;;;;;;;4927686;28;108731;-65
2022/03/10 01:16:37;;;;;;;42.83;18.70;;;;;;;;;;4928394;28;106828;-64
2022/03/10 01:19:05;;;;;;;46.22;19.95;;;;;;;;;;4929979;28;107340;-63
2022/03/10 01:21:31;;;;;;;46.33;19.25;;;;;;;;;;4927963;28;107844;-63
2022/03/10 01:23:58;;;;;;;46.97;20.25;;;;;;;;;;4929402;28;106506;-65
2022/03/10 01:26:24;;;;;;;49.75;19.95;;;;;;;;;;4910751;28;107767;-64
2022/03/10 01:28:50;;;;;;;44.35;19.23;;;;;;;;;;4932547;28;106451;-63
2022/03/10 01:31:17;;;;;;;48.53;19.83;;;;;;;;;;4928614;28;106475;-63
2022/03/10 01:33:44;;;;;;;44.33;19.30;;;;;;;;;;4929555;28;107305;-63
2022/03/10 01:36:10;;;;;;;42.80;19.20;;;;;;;;;;4929387;28;106817;-63
2022/03/10 01:38:42;;;;;;;45.10;19.00;;;;;;;;;;4925844;28;106832;-63
2022/03/10 01:41:09;;;;;;;46.38;20.55;;;;;;;;;;4922936;28;107525;-63
2022/03/10 01:43:54;;;;;;;47.72;21.02;;;;;;;;;;4926086;28;106725;-66
2022/03/10 01:46:20;;;;;;;48.15;19.80;;;;;;;;;;4922367;28;107187;-63
2022/03/10 01:48:47;;;;;;;48.90;20.90;;;;;;;;;;4925496;28;107506;-64
2022/03/10 01:51:13;;;;;;;47.05;19.90;;;;;;;;;;4920185;28;107359;-65
2022/03/10 01:53:40;;;;;;;43.17;19.85;;;;;;;;;;4912707;28;106356;-64
2022/03/10 01:56:06;;;;;;;44.80;19.45;;;;;;;;;;4918066;28;106796;-64
2022/03/10 01:58:33;;;;;;;57.65;20.70;;;;;;;;;;4926409;28;106017;-66
2022/03/10 02:01:00;;;;;;;48.72;20.33;;;;;;;;;;4928092;28;106439;-64
2022/03/10 02:03:26;;;;;;;44.15;20.27;;;;;;;;;;4927863;28;106423;-65
2022/03/10 02:05:55;;;;;;;48.75;19.50;;;;;;;;;;4929107;28;107710;-67
2022/03/10 02:11:10;;;;;;;47.45;19.88;;;;;;;;;;4951514;28;106583;-65
2022/03/10 02:13:36;;;;;;;47.10;20.90;;;;;;;;;;4947688;28;106398;-64
2022/03/10 02:18:48;;;;;;;47.42;20.80;;;;;;;;;;4947768;28;106714;-63
2022/03/10 02:21:14;;;;;;;48.47;20.90;;;;;;;;;;4946771;28;107325;-63
2022/03/10 02:23:41;;;;;;;46.33;20.00;;;;;;;;;;4947656;28;106009;-65
2022/03/10 02:26:08;;;;;;;51.13;20.42;;;;;;;;;;4948129;28;106664;-67
2022/03/10 02:28:35;;;;;;;46.47;19.63;;;;;;;;;;4946879;28;107552;-65
2022/03/10 02:31:02;;;;;;;46.88;20.75;;;;;;;;;;4948579;28;105770;-65
2022/03/10 02:33:28;;;;;;;47.50;20.80;;;;;;;;;;4951715;28;106333;-64
2022/03/10 02:35:54;;;;;;;46.30;20.67;;;;;;;;;;4948607;28;106774;-63
2022/03/10 02:38:21;;;;;;;44.72;19.98;;;;;;;;;;4948216;28;113488;-63
2022/03/10 02:40:47;;;;;;;47.33;20.50;;;;;;;;;;4948601;28;106458;-65
2022/03/10 02:43:14;;;;;;;49.72;19.17;;;;;;;;;;4947943;28;107464;-63
2022/03/10 02:45:40;;;;;;;51.03;19.42;;;;;;;;;;4948945;28;106717;-65
2022/03/10 02:48:07;;;;;;;49.35;20.33;;;;;;;;;;4939346;28;107255;-68
2022/03/10 02:50:33;;;;;;;42.67;20.00;;;;;;;;;;4938977;28;107036;-63
2022/03/10 02:52:59;;;;;;;48.80;21.13;;;;;;;;;;4947901;28;105899;-66
2022/03/10 02:55:26;;;;;;;51.42;20.45;;;;;;;;;;4951472;28;106245;-64
2022/03/10 02:57:52;;;;;;;45.45;21.17;;;;;;;;;;4948906;28;107336;-64
2022/03/10 03:00:19;;;;;;;44.83;19.52;;;;;;;;;;4947571;28;108921;-64
2022/03/10 03:02:46;;;;;;;48.78;19.98;;;;;;;;;;4948600;28;106415;-63
2022/03/10 03:05:13;;;;;;;49.78;20.70;;;;;;;;;;4948366;28;108028;-64
2022/03/10 03:07:41;;;;;;;46.90;20.52;;;;;;;;;;4947126;28;107587;-64
2022/03/10 03:10:08;;;;;;;42.28;19.52;;;;;;;;;;4948282;28;106021;-65
2022/03/10 03:12:41;;;;;;;52.88;20.70;;;;;;;;;;4948777;28;106903;-64
2022/03/10 03:15:08;;;;;;;50.72;21.23;;;;;;;;;;4945966;28;106174;-64
2022/03/10 03:17:34;;;;;;;41.72;19.38;;;;;;;;;;4950811;28;105986;-64
2022/03/10 03:20:01;;;;;;;46.00;18.92;;;;;;;;;;4946267;28;107700;-64
2022/03/10 03:22:27;;;;;;;48.42;21.17;;;;;;;;;;4944980;28;106168;-64
2022/03/10 03:24:53;;;;;;;50.70;20.90;;;;;;;;;;4948970;28;106716;-64
2022/03/10 03:27:20;;;;;;;43.08;19.20;;;;;;;;;;4950197;28;107954;-64
2022/03/10 03:29:47;;;;;;;46.03;20.38;;;;;;;;;;4950590;28;105927;-63
2022/03/10 03:32:14;;;;;;;48.00;20.67;;;;;;;;;;4950383;28;105866;-64
2022/03/10 03:34:40;;;;;;;46.22;20.90;;;;;;;;;;4951566;28;107474;-64
2022/03/10 03:37:06;;;;;;;46.33;21.45;;;;;;;;;;4932934;28;107018;-63
2022/03/10 03:39:33;;;;;;;49.45;20.30;;;;;;;;;;4954994;28;107168;-64
2022/03/10 03:41:59;;;;;;;47.63;20.15;;;;;;;;;;4949560;28;106415;-64
2022/03/10 03:44:26;;;;;;;47.80;20.45;;;;;;;;;;4949809;28;106296;-64
2022/03/10 03:46:52;;;;;;;54.65;20.30;;;;;;;;;;4951472;28;107723;-64
2022/03/10 03:49:18;;;;;;;48.78;20.40;;;;;;;;;;4950906;28;106235;-63
2022/03/10 03:51:45;;;;;;;47.95;21.33;;;;;;;;;;4950726;28;107741;-63
2022/03/10 03:54:11;;;;;;;47.38;20.02;;;;;;;;;;4950016;28;106971;-63
2022/03/10 03:56:38;;;;;;;48.53;19.75;;;;;;;;;;4951580;28;106191;-63
2022/03/10 03:59:04;;;;;;;47.30;19.75;;;;;;;;;;4945410;28;106735;-63
2022/03/10 04:01:31;;;;;;;44.28;19.15;;;;;;;;;;4950176;28;105919;-63
2022/03/10 04:03:57;;;;;;;44.83;19.88;;;;;;;;;;4951433;28;107783;-63
2022/03/10 04:06:24;;;;;;;48.80;20.00;;;;;;;;;;4948924;28;106421;-63
2022/03/10 04:08:50;;;;;;;45.00;19.38;;;;;;;;;;4950529;28;105944;-63
2022/03/10 04:11:17;;;;;;;45.08;19.42;;;;;;;;;;4950595;28;106666;-65
2022/03/10 04:13:44;;;;;;;49.10;19.67;;;;;;;;;;4949245;28;107750;-64
2022/03/10 04:16:10;;;;;;;50.10;19.42;;;;;;;;;;4950032;28;106324;-64
2022/03/10 04:18:37;;;;;;;49.45;19.67;;;;;;;;;;4950922;28;107193;-64
2022/03/10 04:21:03;;;;;;;44.45;18.83;;;;;;;;;;4953308;28;108142;-65
2022/03/10 04:23:30;;;;;;;43.25;19.13;;;;;;;;;;4933337;28;107281;-65
2022/03/10 04:25:56;;;;;;;48.70;19.40;;;;;;;;;;4949878;28;106378;-65
2022/03/10 04:28:22;;;;;;;42.80;19.30;;;;;;;;;;4950094;28;105990;-64
2022/03/10 04:30:49;;;;;;;43.67;19.02;;;;;;;;;;4949472;28;106576;-64
2022/03/10 04:33:16;;;;;;;44.63;19.23;;;;;;;;;;4944522;28;106597;-65
2022/03/10 04:35:43;;;;;;;44.78;19.60;;;;;;;;;;4949750;28;106337;-65
2022/03/10 04:38:10;;;;;;;51.13;20.25;;;;;;;;;;4950208;28;107465;-64
2022/03/10 04:40:37;;;;;;;40.75;17.77;;;;;;;;;;4948739;28;106786;-65
2022/03/10 04:43:04;;;;;;;43.92;18.42;;;;;;;;;;4943036;28;106452;-64
2022/03/10 04:45:30;;;;;;;46.35;19.30;;;;;;;;;;4948958;28;107136;-64
2022/03/10 04:47:56;;;;;;;43.47;18.40;;;;;;;;;;4949956;28;106017;-65
2022/03/10 04:50:24;;;;;;;41.20;17.88;;;;;;;;;;4949923;28;106111;-64
2022/03/10 04:52:51;;;;;;;44.67;18.58;;;;;;;;;;4949352;28;107338;-64
2022/03/10 04:55:17;;;;;;;44.95;19.98;;;;;;;;;;4948065;28;105889;-64
2022/03/10 04:57:49;;;;;;;43.25;18.35;;;;;;;;;;4945898;28;107416;-64
2022/03/10 05:00:18;;;;;;;46.27;19.97;;;;;;;;;;4948622;28;109477;-65
2022/03/10 05:02:46;;;;;;;43.30;19.27;;;;;;;;;;4949485;28;108562;-67
2022/03/10 05:05:13;;;;;;;44.35;18.90;;;;;;;;;;4952707;28;106866;-66
2022/03/10 05:07:40;;;;;;;41.33;18.27;;;;;;;;;;4948833;28;106789;-65
2022/03/10 05:10:08;;;;;;;47.95;18.38;;;;;;;;;;4949635;28;107227;-65
2022/03/10 05:12:42;;;;;;;53.78;19.30;;;;;;;;;;4948969;28;107272;-63
2022/03/10 05:15:09;;;;;;;40.85;17.77;;;;;;;;;;4930670;28;106074;-63
2022/03/10 05:17:35;;;;;;;40.67;17.80;;;;;;;;;;4949594;28;106811;-63
2022/03/10 05:20:06;;;;;;;44.58;17.88;;;;;;;;;;4948570;28;108109;-63
2022/03/10 05:22:45;;;;;;;48.65;18.17;;;;;;;;;;4949926;28;105911;-64
2022/03/10 05:25:12;;;;;;;45.65;17.75;;;;;;;;;;4949759;28;105937;-63
2022/03/10 05:27:39;;;;;;;46.28;17.92;;;;;;;;;;4951877;28;106363;-64
2022/03/10 05:30:05;;;;;;;43.58;17.92;;;;;;;;;;4946747;28;107000;-64
2022/03/10 05:32:32;;;;;;;43.33;18.73;;;;;;;;;;4960880;28;107963;-64
2022/03/10 05:35:00;;;;;;;42.15;17.45;;;;;;;;;;4950129;28;106835;-63
2022/03/10 05:37:27;;;;;;;46.40;17.80;;;;;;;;;;4949737;28;106868;-64
2022/03/10 05:39:53;;;;;;;44.25;18.83;;;;;;;;;;4932423;28;106761;-64
2022/03/10 05:42:19;;;;;;;42.92;17.73;;;;;;;;;;4949200;28;106263;-64
2022/03/10 05:44:46;;;;;;;41.22;16.95;;;;;;;;;;4947965;28;106734;-65
2022/03/10 05:47:12;;;;;;;43.03;18.30;;;;;;;;;;4947826;28;106150;-65
2022/03/10 05:49:38;;;;;;;42.70;17.00;;;;;;;;;;4957844;28;105705;-65
2022/03/10 05:52:05;;;;;;;42.08;18.10;;;;;;;;;;4953225;28;106285;-63
2022/03/10 05:54:32;;;;;;;42.67;17.60;;;;;;;;;;4949457;28;105930;-63
2022/03/10 05:56:58;;;;;;;50.25;18.90;;;;;;;;;;4948706;28;106348;-63
2022/03/10 05:59:25;;;;;;;41.70;18.90;;;;;;;;;;4947089;28;106538;-66
2022/03/10 06:01:51;;;;;;;41.70;19.02;;;;;;;;;;4947786;28;105976;-63
2022/03/10 06:04:18;;;;;;;62.53;20.02;;;;;;;;;;4948711;28;106041;-63
2022/03/10 06:06:47;;;;;;;54.85;19.48;;;;;;;;;;4948012;28;106278;-63
2022/03/10 06:09:13;;;;;;;48.25;19.10;;;;;;;;;;4945694;28;106679;-66
2022/03/10 06:11:40;;;;;;;43.47;18.33;;;;;;;;;;4946408;28;106376;-65
2022/03/10 06:14:06;;;;;;;42.92;19.00;;;;;;;;;;4947542;28;107460;-64
2022/03/10 06:16:38;;;;;;;45.20;19.60;;;;;;;;;;4947889;28;107639;-65
2022/03/10 06:19:05;;;;;;;53.67;20.08;;;;;;;;;;4948418;28;107167;-65
2022/03/10 06:21:33;;;;;;;53.70;20.42;;;;;;;;;;4930106;28;106236;-69
2022/03/10 06:24:00;;;;;;;52.97;20.23;;;;;;;;;;4943092;28;106450;-63
2022/03/10 06:26:26;;;;;;;46.47;20.20;;;;;;;;;;4948219;28;107897;-63
2022/03/10 06:28:52;;;;;;;44.63;18.90;;;;;;;;;;4948244;28;106254;-65
2022/03/10 06:31:19;;;;;;;52.65;20.65;;;;;;;;;;4949774;28;107378;-64
2022/03/10 06:33:46;;;;;;;48.40;19.73;;;;;;;;;;4929912;28;107165;-63
2022/03/10 06:36:12;;;;;;;45.50;19.23;;;;;;;;;;4947632;28;106825;-64
2022/03/10 06:38:39;;;;;;;43.87;19.07;;;;;;;;;;4943471;28;108254;-64
2022/03/10 06:41:07;;;;;;;50.53;20.67;;;;;;;;;;4946142;28;106168;-70
2022/03/10 06:43:33;;;;;;;44.37;18.77;;;;;;;;;;4944053;28;106583;-65
2022/03/10 06:45:59;;;;;;;45.67;18.38;;;;;;;;;;4944225;28;106201;-65
2022/03/10 06:48:26;;;;;;;47.83;18.50;;;;;;;;;;4927408;28;107169;-65
2022/03/10 06:50:52;;;;;;;41.40;19.10;;;;;;;;;;4939427;28;106769;-64
2022/03/10 06:53:18;;;;;;;45.13;19.63;;;;;;;;;;4947508;28;107778;-64
2022/03/10 06:55:45;;;;;;;49.88;19.08;;;;;;;;;;4935997;28;106885;-64
2022/03/10 06:58:11;;;;;;;49.73;19.90;;;;;;;;;;4943512;28;107036;-64
2022/03/10 07:00:37;;;;;;;43.23;19.53;;;;;;;;;;4951494;28;106479;-64
2022/03/10 07:03:04;;;;;;;39.40;17.63;;;;;;;;;;4948936;28;107029;-63
2022/03/10 07:05:31;;;;;;;48.83;19.73;;;;;;;;;;4950870;28;107459;-63
2022/03/10 07:07:57;;;;;;;48.07;19.40;;;;;;;;;;4950336;28;106446;-66
2022/03/10 07:10:25;;;;;;;43.53;18.60;;;;;;;;;;4944936;28;106487;-66
2022/03/10 07:12:51;;;;;;;45.50;18.83;;;;;;;;;;4950430;28;107395;-63
2022/03/10 07:15:18;;;;;;;47.35;18.25;;;;;;;;;;4944154;28;110766;-67
2022/03/10 07:17:44;;;;;;;41.20;17.02;;;;;;;;;;4943201;28;106344;-64
2022/03/10 07:20:11;;;;;;;44.65;18.02;;;;;;;;;;4944569;28;109043;-64
2022/03/10 07:22:38;;;;;;;41.75;17.60;;;;;;;;;;4926078;28;110272;-66
2022/03/10 07:25:04;;;;;;;45.38;17.98;;;;;;;;;;4949323;28;109076;-66
2022/03/10 07:27:31;;;;;;;45.13;18.17;;;;;;;;;;4950000;28;106201;-66
2022/03/10 07:29:57;;;;;;;44.00;18.60;;;;;;;;;;4946212;28;106603;-66
2022/03/10 07:32:27;;;;;;;38.03;17.55;;;;;;;;;;4948543;28;107259;-64
2022/03/10 07:34:56;;;;;;;44.33;18.88;;;;;;;;;;4949999;28;106881;-64
2022/03/10 07:37:22;;;;;;;43.60;18.35;;;;;;;;;;4950904;28;106054;-63
2022/03/10 07:39:49;;;;;;;44.28;17.45;;;;;;;;;;4949306;28;106192;-63
2022/03/10 07:42:15;;;;;;;45.75;18.25;;;;;;;;;;4931881;28;107532;-66
2022/03/10 07:44:42;;;;;;;45.13;17.27;;;;;;;;;;4946774;28;109090;-64
2022/03/10 07:47:09;;;;;;;43.53;17.92;;;;;;;;;;4948899;28;107740;-64
2022/03/10 07:49:36;;;;;;;36.63;17.33;;;;;;;;;;4941546;28;106886;-63
2022/03/10 07:52:03;;;;;;;37.13;17.15;;;;;;;;;;4941735;28;107467;-63
2022/03/10 07:54:29;;;;;;;39.60;17.90;;;;;;;;;;4948233;28;108852;-64
2022/03/10 07:56:56;;;;;;;33.40;15.95;;;;;;;;;;4948769;28;107719;-64
2022/03/10 07:59:22;;;;;;;30.40;15.77;;;;;;;;;;4928461;28;106272;-65
2022/03/10 08:01:48;;;;;;;31.95;15.68;;;;;;;;;;4949871;28;106911;-64
2022/03/10 08:04:15;;;;;;;32.95;15.05;;;;;;;;;;4949864;28;107436;-65
2022/03/10 08:06:42;;;;;;;33.42;15.50;;;;;;;;;;4948707;28;107597;-65
2022/03/10 08:09:10;;;;;;;31.73;14.45;;;;;;;;;;4947631;28;106933;-65
2022/03/10 08:11:38;;;;;;;31.17;15.30;;;;;;;;;;4949174;28;107261;-65
2022/03/10 08:14:07;;;;;;;34.08;15.80;;;;;;;;;;4947564;28;106095;-67
2022/03/10 08:16:34;;;;;;;34.65;15.25;;;;;;;;;;4949828;28;107692;-66
2022/03/10 08:19:00;;;;;;;32.10;14.90;;;;;;;;;;4945169;28;106374;-69
2022/03/10 08:21:27;;;;;;;33.55;15.18;;;;;;;;;;4945190;28;106726;-65
2022/03/10 08:23:53;;;;;;;35.05;14.77;;;;;;;;;;4944201;28;107411;-66
2022/03/10 08:26:19;;;;;;;33.17;14.73;;;;;;;;;;4945529;28;107021;-66
2022/03/10 08:28:51;;;;;;;32.58;16.20;;;;;;;;;;4947015;28;107307;-66
2022/03/10 08:31:17;;;;;;;31.83;14.82;;;;;;;;;;4942153;28;107540;-64
2022/03/10 08:33:44;;;;;;;36.42;16.23;;;;;;;;;;4941488;28;106465;-65
2022/03/10 08:36:14;;;;;;;37.90;14.90;;;;;;;;;;4943865;28;107059;-68
2022/03/10 08:38:40;;;;;;;33.20;15.32;;;;;;;;;;4945467;28;107545;-68
2022/03/10 08:41:06;;;;;;;29.77;14.70;;;;;;;;;;4953650;28;106178;-68
2022/03/10 08:43:33;;;;;;;42.15;16.35;;;;;;;;;;4947949;28;106598;-66
2022/03/10 08:46:03;;;;;;;38.53;16.35;;;;;;;;;;4938333;28;108398;-67
2022/03/10 08:48:32;;;;;;;43.55;16.60;;;;;;;;;;4945025;28;108532;-67
2022/03/10 08:50:59;;;;;;;32.33;15.23;;;;;;;;;;4953061;28;107398;-66
2022/03/10 08:53:25;;;;;;;46.47;16.13;;;;;;;;;;4941478;28;106273;-69
2022/03/10 08:55:52;;;;;;;38.28;15.07;;;;;;;;;;4948409;28;108177;-67
2022/03/10 08:58:21;;;;;;;37.00;16.33;;;;;;;;;;4942627;28;106326;-66
2022/03/10 09:00:47;;;;;;;31.13;14.73;;;;;;;;;;4941977;28;107037;-65
2022/03/10 09:03:34;;;;;;;34.35;15.27;;;;;;;;;;4942982;28;107649;-66
2022/03/10 09:06:01;;;;;;;36.58;16.05;;;;;;;;;;4944272;28;108926;-64
2022/03/10 09:08:28;;;;;;;32.95;16.35;;;;;;;;;;4940610;28;107863;-65
2022/03/10 09:10:54;;;;;;;33.22;15.95;;;;;;;;;;4942390;28;106965;-65
2022/03/10 09:13:22;;;;;;;37.22;16.10;;;;;;;;;;4941251;28;106652;-65
2022/03/10 09:15:48;;;;;;;31.25;15.00;;;;;;;;;;4945232;28;107532;-66
2022/03/10 09:18:15;;;;;;;31.45;15.50;;;;;;;;;;4943417;28;106928;-68
2022/03/10 09:20:41;;;;;;;35.72;15.52;;;;;;;;;;4945465;28;105903;-67
2022/03/10 09:23:07;;;;;;;31.45;16.48;;;;;;;;;;4944389;28;107665;-67
2022/03/10 09:25:34;;;;;;;32.90;15.43;;;;;;;;;;4950472;28;107527;-66
2022/03/10 09:28:00;;;;;;;36.60;16.55;;;;;;;;;;4948730;28;106504;-66
2022/03/10 09:30:27;;;;;;;52.45;16.65;;;;;;;;;;4946930;28;106933;-66
2022/03/10 09:32:54;;;;;;;31.88;15.27;;;;;;;;;;4947025;28;107842;-65
2022/03/10 09:35:21;;;;;;;36.38;17.15;;;;;;;;;;4944360;28;107091;-66
2022/03/10 09:37:47;;;;;;;35.97;16.10;;;;;;;;;;4943377;28;107437;-66
2022/03/10 09:40:13;;;;;;;32.42;15.60;;;;;;;;;;4941962;28;107572;-65
2022/03/10 09:42:42;;;;;;;33.40;15.73;;;;;;;;;;4942614;28;108069;-70
2022/03/10 09:45:09;;;;;;;35.28;15.82;;;;;;;;;;4941084;28;108428;-67
2022/03/10 09:47:37;;;;;;;35.22;16.05;;;;;;;;;;4945901;28;106997;-66
2022/03/10 09:50:04;;;;;;;34.40;16.27;;;;;;;;;;4943781;28;106198;-66
2022/03/10 09:52:31;;;;;;;32.55;16.20;;;;;;;;;;4945287;28;106328;-66
2022/03/10 09:54:58;;;;;;;36.22;16.30;;;;;;;;;;4949068;28;107158;-66
2022/03/10 09:57:25;;;;;;;33.17;16.20;;;;;;;;;;4944316;28;106400;-69
2022/03/10 09:59:58;;;;;;;39.40;16.38;;;;;;;;;;4948624;28;106821;-66
2022/03/10 10:02:26;;;;;;;34.53;16.27;;;;;;;;;;4948132;28;107951;-66
2022/03/10 10:04:53;;;;;;;31.98;15.18;;;;;;;;;;4951901;28;107595;-67
2022/03/10 10:07:21;;;;;;;35.15;15.50;;;;;;;;;;4948178;28;107496;-67
2022/03/10 10:09:54;;;;;;;37.00;16.40;;;;;;;;;;4945704;28;107425;-68
2022/03/10 10:12:25;;;;;;;36.65;16.33;;;;;;;;;;4948562;28;106253;-67
2022/03/10 10:14:52;;;;;;;34.78;15.60;;;;;;;;;;4947774;28;107124;-68
2022/03/10 10:17:32;;;;;;;33.10;16.10;;;;;;;;;;4946329;28;109260;-68
2022/03/10 10:20:18;;;;;;;35.17;16.67;;;;;;;;;;4948350;28;106227;-68
2022/03/10 10:22:45;;;;;;;32.53;16.38;;;;;;;;;;4947637;28;107470;-67
2022/03/10 10:25:11;;;;;;;43.33;18.02;;;;;;;;;;4945300;28;106471;-68
2022/03/10 10:27:38;;;;;;;30.30;15.65;;;;;;;;;;4947407;28;106215;-68
2022/03/10 10:30:05;;;;;;;34.58;17.48;;;;;;;;;;4950259;28;106159;-66
2022/03/10 10:32:32;;;;;;;32.25;16.35;;;;;;;;;;4928778;28;107695;-68
2022/03/10 10:34:58;;;;;;;33.70;16.35;;;;;;;;;;4944426;28;106779;-66
2022/03/10 10:37:25;;;;;;;34.40;16.23;;;;;;;;;;4947804;28;107535;-68
2022/03/10 10:39:56;;;;;;;33.60;16.45;;;;;;;;;;4934024;28;106694;-67
2022/03/10 10:42:27;;;;;;;37.30;15.85;;;;;;;;;;4946244;28;106019;-63
2022/03/10 10:44:54;;;;;;;35.85;15.85;;;;;;;;;;4946327;28;107286;-70
2022/03/10 11:18:00;;;;;;;38.03;17.27;;;;;;;;;;5052725;27;106466;-64
2022/03/10 11:20:28;;;;;;;32.10;15.68;;;;;;;;;;5044366;27;107628;-65
2022/03/10 11:23:02;;;;;;;27.27;14.60;;;;;;;;;;5036289;27;107094;-65
2022/03/10 11:25:47;;;;;;;38.40;14.82;;;;;;;;;;5038201;27;107489;-65
2022/03/10 11:28:15;;;;;;;26.10;14.18;;;;;;;;;;5043788;27;107599;-66
2022/03/10 11:30:49;;;;;;;50.15;16.23;;;;;;;;;;5050309;27;105793;-66
2022/03/10 11:33:16;;;;;;;26.38;14.07;;;;;;;;;;5044860;27;106926;-65
2022/03/10 11:35:44;;;;;;;30.30;16.05;;;;;;;;;;5041467;27;106570;-65
2022/03/10 11:38:11;;;;;;;33.83;16.17;;;;;;;;;;5052844;27;106473;-66
2022/03/10 11:40:41;;;;;;;31.20;15.35;;;;;;;;;;5034420;27;107817;-67
2022/03/10 11:43:08;;;;;;;31.48;15.93;;;;;;;;;;5046643;27;107117;-66
2022/03/10 11:45:35;;;;;;;32.85;15.77;;;;;;;;;;5045217;27;106458;-68
2022/03/10 11:48:20;;;;;;;31.35;16.42;;;;;;;;;;5046037;27;107338;-65
2022/03/10 11:50:46;;;;;;;31.20;16.67;;;;;;;;;;5046467;27;107946;-68
2022/03/10 11:53:13;;;;;;;32.67;17.20;;;;;;;;;;5045990;27;106612;-67
2022/03/10 11:55:41;;;;;;;34.20;17.30;;;;;;;;;;5045120;27;107460;-64
2022/03/10 11:58:10;;;;;;;34.60;17.25;;;;;;;;;;5045783;27;107512;-65
2022/03/10 12:00:39;;;;;;;31.45;16.50;;;;;;;;;;5050878;27;107772;-65
2022/03/10 12:03:06;;;;;;;27.42;15.57;;;;;;;;;;5047420;27;106033;-65
2022/03/10 12:06:01;;;;;;;28.67;15.90;;;;;;;;;;5048153;27;107202;-64
2022/03/10 12:08:31;;;;;;;29.48;16.58;;;;;;;;;;5045783;27;107685;-66
2022/03/10 12:10:59;;;;;;;32.25;16.63;;;;;;;;;;5046375;27;106361;-66
2022/03/10 12:13:28;;;;;;;32.25;17.35;;;;;;;;;;5045857;27;107277;-66
2022/03/10 12:15:55;;;;;;;31.30;15.50;;;;;;;;;;5043659;27;107427;-67
2022/03/10 12:18:24;;;;;;;28.75;16.42;;;;;;;;;;5045170;27;106221;-65
2022/03/10 12:20:53;;;;;;;30.13;16.77;;;;;;;;;;5030085;27;107404;-66
2022/03/10 12:23:26;;;;;;;32.85;17.00;;;;;;;;;;5035209;27;107005;-66
2022/03/10 12:25:59;;;;;;;26.52;15.20;;;;;;;;;;5032992;27;107256;-66
2022/03/10 12:28:30;;;;;;;28.38;14.57;;;;;;;;;;5030769;27;107977;-66
2022/03/10 12:31:04;;;;;;;29.33;14.80;;;;;;;;;;5033148;27;107456;-65
2022/03/10 12:33:31;;;;;;;27.63;15.32;;;;;;;;;;5027811;27;107825;-66
2022/03/10 12:35:58;;;;;;;28.20;15.57;;;;;;;;;;5025143;27;108060;-66
2022/03/10 12:38:38;;;;;;;29.52;15.63;;;;;;;;;;4995727;27;106919;-66
2022/03/10 12:41:04;;;;;;;27.52;15.80;;;;;;;;;;5031166;27;107308;-66
2022/03/10 12:43:31;;;;;;;27.70;16.17;;;;;;;;;;5015568;27;107814;-66
2022/03/10 12:45:58;;;;;;;31.77;15.98;;;;;;;;;;5037020;27;106644;-65
2022/03/10 12:48:35;;;;;;;31.13;16.02;;;;;;;;;;5032265;27;107238;-67
2022/03/10 12:51:01;;;;;;;28.85;15.68;;;;;;;;;;5028586;27;107702;-66
2022/03/10 12:53:34;;;;;;;26.13;16.13;;;;;;;;;;5031367;27;108619;-66
2022/03/10 12:56:00;;;;;;;26.25;16.25;;;;;;;;;;5031848;27;107842;-66
2022/03/10 12:58:30;;;;;;;28.48;16.45;;;;;;;;;;5031245;27;107159;-71
2022/03/10 13:01:03;;;;;;;29.40;16.90;;;;;;;;;;5032666;27;107373;-66
2022/03/10 13:03:35;;;;;;;26.55;14.98;;;;;;;;;;5014753;27;107906;-66
2022/03/10 13:06:02;;;;;;;26.25;16.63;;;;;;;;;;5033059;27;107801;-66
2022/03/10 13:08:31;;;;;;;28.75;16.73;;;;;;;;;;5034386;27;107442;-66
2022/03/10 13:10:59;;;;;;;27.55;17.58;;;;;;;;;;5028219;27;107136;-66
2022/03/10 13:13:29;;;;;;;26.75;16.60;;;;;;;;;;5023362;27;108729;-67
2022/03/10 13:15:59;;;;;;;28.88;15.93;;;;;;;;;;5028996;27;107494;-66
2022/03/10 13:18:26;;;;;;;27.15;16.50;;;;;;;;;;5031433;27;109145;-66
2022/03/10 13:20:56;;;;;;;32.25;17.33;;;;;;;;;;5022558;27;108089;-66
2022/03/10 13:23:27;;;;;;;29.13;16.85;;;;;;;;;;5037926;27;108275;-66
2022/03/10 13:25:54;;;;;;;27.35;15.95;;;;;;;;;;5032341;27;107564;-67
2022/03/10 13:28:24;;;;;;;26.45;16.73;;;;;;;;;;5031955;27;109139;-67
2022/03/10 13:30:51;;;;;;;28.05;17.10;;;;;;;;;;5028041;27;107359;-66
2022/03/10 13:33:18;;;;;;;26.17;16.88;;;;;;;;;;5031082;27;109235;-66
2022/03/10 13:35:46;;;;;;;30.02;17.70;;;;;;;;;;5030818;27;108935;-66
2022/03/10 13:38:21;;;;;;;46.90;17.75;;;;;;;;;;5033318;27;108397;-66
2022/03/10 13:40:48;;;;;;;26.67;17.15;;;;;;;;;;5034705;27;108383;-66
2022/03/10 13:43:22;;;;;;;27.52;17.95;;;;;;;;;;5022698;27;108784;-66
2022/03/10 13:45:48;;;;;;;30.48;17.17;;;;;;;;;;5027626;27;107706;-70
2022/03/10 13:48:22;;;;;;;26.55;17.08;;;;;;;;;;5030382;27;109535;-65
2022/03/10 13:50:49;;;;;;;33.90;18.15;;;;;;;;;;5028153;27;109856;-66
2022/03/10 13:53:15;;;;;;;25.50;16.23;;;;;;;;;;5033295;27;109994;-65
2022/03/10 13:55:48;;;;;;;28.70;17.60;;;;;;;;;;5030021;27;108778;-65
2022/03/10 13:58:16;;;;;;;28.23;17.75;;;;;;;;;;5028748;27;109422;-65
2022/03/10 14:00:45;;;;;;;25.93;16.83;;;;;;;;;;5029936;27;108328;-65
2022/03/10 14:03:13;;;;;;;26.92;17.45;;;;;;;;;;5028320;27;110324;-65
2022/03/10 14:05:47;;;;;;;27.75;18.55;;;;;;;;;;5023628;27;109944;-66
2022/03/10 14:08:26;;;;;;;29.98;17.45;;;;;;;;;;5027802;27;109920;-66
2022/03/10 14:10:55;;;;;;;26.00;16.95;;;;;;;;;;5028552;27;109730;-66
2022/03/10 14:13:21;;;;;;;28.52;16.90;;;;;;;;;;5031597;27;109369;-66
2022/03/10 14:15:54;;;;;;;27.35;18.13;;;;;;;;;;5023340;27;111039;-66
2022/03/10 14:18:21;;;;;;;26.13;16.85;;;;;;;;;;5029028;27;110902;-65
2022/03/10 14:20:48;;;;;;;30.10;18.02;;;;;;;;;;5031700;27;108801;-66
2022/03/10 14:23:19;;;;;;;26.95;16.70;;;;;;;;;;5018792;27;109988;-66
2022/03/10 14:25:46;;;;;;;28.75;17.42;;;;;;;;;;5016841;27;108363;-67
2022/03/10 14:28:14;;;;;;;23.57;16.87;;;;;;;;;;5032892;27;109585;-67
2022/03/10 14:30:40;;;;;;;24.92;17.05;;;;;;;;;;5028140;27;110373;-64
2022/03/10 14:33:07;;;;;;;28.80;17.30;;;;;;;;;;5024454;27;109019;-64
2022/03/10 14:35:35;;;;;;;25.00;17.40;;;;;;;;;;5021490;27;109949;-64
2022/03/10 14:38:01;;;;;;;27.17;17.83;;;;;;;;;;5013089;27;109358;-64
2022/03/10 14:40:28;;;;;;;31.45;18.30;;;;;;;;;;5028907;27;109859;-64
2022/03/10 14:42:58;;;;;;;25.08;16.90;;;;;;;;;;5023857;27;110229;-64